Time;durP1;ratioP1;P1;durP2;ratioP2;P2;SDS_P1;SDS_P2;PMS_P1;PMS_P2;Temp;Humidity;BMP_temperature;BMP_pressure;BME280_temperature;BME280_humidity;BME280_pressure;Samples;Min_cycle;Max_cycle;Signal;HPM_P1;HPM_P2
2023/10/05 00:04:01;;;;;;;16.47;8.37;;;13.60;99.90;;;;;;4209233;28;20430;-58
2023/10/05 00:06:13;;;;;;;16.03;9.90;;;13.60;99.90;;;;;;4210043;28;20097;-59
2023/10/05 00:08:15;;;;;;;17.07;8.90;;;13.50;99.90;;;;;;4211085;28;20048;-60
2023/10/05 00:10:17;;;;;;;16.87;9.33;;;13.50;99.90;;;;;;4210591;28;20537;-61
2023/10/05 00:12:25;;;;;;;15.53;8.83;;;13.50;99.90;;;;;;4210558;28;20036;-61
2023/10/05 00:14:26;;;;;;;16.20;9.93;;;13.50;99.90;;;;;;4210394;28;20093;-60
2023/10/05 00:16:38;;;;;;;14.33;8.80;;;13.40;99.90;;;;;;4209939;28;20036;-61
2023/10/05 00:18:39;;;;;;;15.57;9.57;;;13.40;99.90;;;;;;4210172;28;20040;-59
2023/10/05 00:20:41;;;;;;;18.30;9.33;;;13.40;99.90;;;;;;4210133;28;20032;-61
2023/10/05 00:22:42;;;;;;;18.27;9.27;;;13.30;99.90;;;;;;4208924;28;20370;-59
2023/10/05 00:24:45;;;;;;;17.53;9.23;;;13.30;99.90;;;;;;4208382;28;20040;-61
2023/10/05 00:26:47;;;;;;;19.70;9.97;;;13.30;99.90;;;;;;4210759;28;20484;-61
2023/10/05 00:29:40;;;;;;;17.77;9.77;;;13.20;99.90;;;;;;4209327;28;20483;-59
2023/10/05 00:31:10;;;;;;;16.53;8.87;;;13.20;99.90;;;;;;4200051;28;20040;-59
2023/10/05 00:33:11;;;;;;;17.20;8.97;;;13.20;99.90;;;;;;4209162;28;20048;-60
2023/10/05 00:35:26;;;;;;;14.53;8.90;;;13.10;99.90;;;;;;4209522;28;20035;-60
2023/10/05 00:37:28;;;;;;;16.37;8.60;;;13.10;99.90;;;;;;4209849;28;20128;-61
2023/10/05 00:39:30;;;;;;;16.40;9.70;;;13.00;99.90;;;;;;4210644;28;20077;-61
2023/10/05 00:41:31;;;;;;;20.93;9.90;;;13.00;99.90;;;;;;4209717;28;20117;-60
2023/10/05 00:43:32;;;;;;;15.40;8.30;;;13.00;99.90;;;;;;4210249;28;20043;-61
2023/10/05 00:45:33;;;;;;;20.83;9.50;;;13.00;99.90;;;;;;4209050;28;20173;-61
2023/10/05 00:47:35;;;;;;;14.50;8.73;;;12.90;99.90;;;;;;4210842;28;20093;-59
2023/10/05 00:49:51;;;;;;;17.77;9.37;;;12.90;99.90;;;;;;4208897;28;20441;-61
2023/10/05 00:52:02;;;;;;;13.33;8.67;;;12.80;99.90;;;;;;4210895;28;20373;-60
2023/10/05 00:54:11;;;;;;;17.23;10.90;;;12.80;99.90;;;;;;4209676;28;20036;-60
2023/10/05 00:56:15;;;;;;;17.17;9.53;;;12.70;99.90;;;;;;4210199;28;20073;-60
2023/10/05 00:58:17;;;;;;;15.03;9.07;;;12.70;99.90;;;;;;4209268;28;20052;-61
2023/10/05 01:00:28;;;;;;;16.53;9.13;;;12.70;99.90;;;;;;4210283;28;20598;-61
2023/10/05 01:02:31;;;;;;;;;;;12.70;99.90;;;;;;4209021;28;20040;-61
2023/10/05 01:06:49;;;;;;;15.43;8.70;;;12.60;99.90;;;;;;4208977;28;20427;-61
2023/10/05 01:08:59;;;;;;;15.30;9.70;;;12.50;99.90;;;;;;4210879;28;20533;-60
2023/10/05 01:11:01;;;;;;;15.48;8.60;;;12.50;99.90;;;;;;4209489;28;20369;-55
2023/10/05 01:13:28;;;;;;;15.63;8.83;;;12.50;99.90;;;;;;4210586;28;20048;-57
2023/10/05 01:15:33;;;;;;;13.70;8.70;;;12.50;99.90;;;;;;4212620;28;20439;-61
2023/10/05 01:17:36;;;;;;;17.03;10.23;;;12.40;99.90;;;;;;4213763;28;20365;-60
2023/10/05 01:19:39;;;;;;;16.77;10.17;;;12.40;99.90;;;;;;4211932;28;20055;-60
2023/10/05 01:21:43;;;;;;;15.70;8.87;;;12.40;99.90;;;;;;4212896;28;20411;-61
2023/10/05 01:23:48;;;;;;;14.90;9.43;;;12.30;99.90;;;;;;4196283;28;20086;-57
2023/10/05 01:25:50;;;;;;;13.90;8.83;;;12.30;99.90;;;;;;4213298;28;20028;-60
2023/10/05 01:27:52;;;;;;;16.70;9.43;;;12.20;99.90;;;;;;4212422;28;20121;-61
2023/10/05 01:29:53;;;;;;;15.27;9.07;;;12.20;99.90;;;;;;4213282;28;20460;-61
2023/10/05 01:31:56;;;;;;;15.67;9.20;;;12.20;99.90;;;;;;4213234;28;20050;-61
2023/10/05 01:33:59;;;;;;;16.23;9.13;;;12.20;99.90;;;;;;4212183;28;20480;-61
2023/10/05 01:36:00;;;;;;;15.83;9.13;;;12.10;99.90;;;;;;4213339;28;20047;-58
2023/10/05 01:38:02;;;;;;;16.97;9.30;;;12.10;99.90;;;;;;4212003;28;20081;-60
2023/10/05 01:42:34;;;;;;;16.60;9.10;;;12.00;99.90;;;;;;4192366;28;20037;-61
2023/10/05 01:44:37;;;;;;;15.93;8.57;;;12.00;99.90;;;;;;4212278;28;20073;-61
2023/10/05 01:46:39;;;;;;;12.30;8.40;;;11.90;99.90;;;;;;4212115;28;20457;-60
2023/10/05 01:48:41;;;;;;;17.87;8.57;;;11.90;99.90;;;;;;4212999;28;20458;-60
2023/10/05 01:50:44;;;;;;;13.03;8.03;;;11.90;99.90;;;;;;4212224;28;20097;-60
2023/10/05 01:52:56;;;;;;;18.43;9.70;;;11.90;99.90;;;;;;4212606;28;20077;-60
2023/10/05 01:54:59;;;;;;;15.30;8.70;;;11.80;99.90;;;;;;4212004;28;20036;-61
2023/10/05 01:57:07;;;;;;;12.90;8.43;;;11.80;99.90;;;;;;4213217;28;20145;-55
2023/10/05 01:59:10;;;;;;;13.67;8.63;;;11.80;99.90;;;;;;4211283;28;20048;-60
2023/10/05 02:01:11;;;;;;;16.43;8.47;;;11.80;99.90;;;;;;4213167;28;20044;-60
2023/10/05 02:03:13;;;;;;;13.60;8.60;;;11.70;99.90;;;;;;4211047;28;20040;-58
2023/10/05 02:05:18;;;;;;;13.33;8.43;;;11.70;99.90;;;;;;4213165;28;20081;-60
2023/10/05 02:07:19;;;;;;;15.30;8.77;;;11.70;99.90;;;;;;4211467;28;20062;-58
2023/10/05 02:09:20;;;;;;;16.40;8.43;;;11.80;99.90;;;;;;4212618;28;20104;-60
2023/10/05 02:11:24;;;;;;;15.50;9.10;;;11.70;99.90;;;;;;4210614;28;20050;-61
2023/10/05 02:13:25;;;;;;;14.50;7.77;;;11.70;99.90;;;;;;4212426;28;20044;-60
2023/10/05 02:15:30;;;;;;;14.10;9.03;;;11.70;99.90;;;;;;4211759;28;20036;-56
2023/10/05 02:17:31;;;;;;;18.23;8.90;;;11.70;99.90;;;;;;4211201;28;20093;-58
2023/10/05 02:19:36;;;;;;;14.10;7.90;;;11.70;99.90;;;;;;4211475;28;20040;-58
2023/10/05 02:21:37;;;;;;;14.37;8.83;;;11.60;99.90;;;;;;4211165;28;20040;-58
2023/10/05 02:23:42;;;;;;;13.53;8.07;;;11.60;99.90;;;;;;4210703;28;20063;-60
2023/10/05 02:25:44;;;;;;;16.10;8.53;;;11.60;99.90;;;;;;4210691;28;20028;-60
2023/10/05 02:27:46;;;;;;;11.47;7.60;;;11.60;99.90;;;;;;4212292;28;20044;-57
2023/10/05 02:29:48;;;;;;;15.27;8.17;;;11.60;99.90;;;;;;4211668;28;20052;-61
2023/10/05 02:34:02;;;;;;;14.73;8.33;;;11.50;99.90;;;;;;4210238;28;20069;-58
2023/10/05 02:36:11;;;;;;;15.27;9.37;;;11.40;99.90;;;;;;4212020;28;20104;-59
2023/10/05 02:38:12;;;;;;;16.30;9.93;;;11.40;99.90;;;;;;4210802;28;20058;-57
2023/10/05 02:40:15;;;;;;;16.07;8.77;;;11.40;99.90;;;;;;4212055;28;20048;-62
2023/10/05 02:42:21;;;;;;;13.73;8.77;;;11.30;99.90;;;;;;4211256;28;20492;-58
2023/10/05 02:46:24;;;;;;;14.87;9.30;;;11.20;99.90;;;;;;4211070;28;20035;-61
2023/10/05 02:48:25;;;;;;;14.87;9.37;;;11.20;99.90;;;;;;4212277;28;20066;-58
2023/10/05 02:50:27;;;;;;;14.33;8.97;;;11.20;99.90;;;;;;4211186;28;20032;-59
2023/10/05 02:52:32;;;;;;;15.50;8.90;;;11.20;99.90;;;;;;4211864;28;20097;-58
2023/10/05 02:54:36;;;;;;;13.60;8.37;;;11.10;99.90;;;;;;4210560;28;20089;-56
2023/10/05 02:56:40;;;;;;;12.47;7.70;;;11.10;99.90;;;;;;4211196;28;20036;-57
2023/10/05 02:58:43;;;;;;;11.87;7.67;;;11.10;99.90;;;;;;4210905;28;20028;-59
2023/10/05 03:00:44;;;;;;;15.60;8.00;;;11.10;99.90;;;;;;4211238;28;20169;-60
2023/10/05 03:02:49;;;;;;;14.87;8.30;;;11.10;99.90;;;;;;4211213;28;20036;-58
2023/10/05 03:04:59;;;;;;;15.17;8.13;;;11.10;99.90;;;;;;4210534;28;20039;-60
2023/10/05 03:07:02;;;;;;;;;;;11.10;99.90;;;;;;4208713;28;20077;-59
2023/10/05 03:09:09;;;;;;;11.70;7.60;;;11.10;99.90;;;;;;4210217;28;19908;-58
2023/10/05 03:11:10;;;;;;;13.20;7.80;;;11.10;99.90;;;;;;4209627;28;20070;-58
2023/10/05 03:13:13;;;;;;;12.07;8.07;;;11.00;99.90;;;;;;4209887;28;20445;-57
2023/10/05 03:15:14;;;;;;;11.43;7.70;;;11.00;99.90;;;;;;4211688;28;20016;-58
2023/10/05 03:17:19;;;;;;;14.17;9.87;;;11.00;99.90;;;;;;4210562;28;20081;-57
2023/10/05 03:19:20;;;;;;;16.87;9.00;;;11.00;99.90;;;;;;4211211;28;20109;-59
2023/10/05 03:21:22;;;;;;;13.53;8.93;;;11.00;99.90;;;;;;4210195;28;20028;-56
2023/10/05 03:23:23;;;;;;;15.13;9.57;;;10.90;99.90;;;;;;4210459;28;20048;-59
2023/10/05 03:25:25;;;;;;;12.40;10.30;;;10.90;99.90;;;;;;4209846;28;20027;-59
2023/10/05 03:27:27;;;;;;;17.03;10.23;;;10.90;99.90;;;;;;4211335;28;20443;-57
2023/10/05 03:29:28;;;;;;;16.27;10.33;;;10.90;99.90;;;;;;4210516;28;20032;-58
2023/10/05 03:31:36;;;;;;;16.77;9.47;;;10.90;99.90;;;;;;4210753;28;20108;-59
2023/10/05 03:33:39;;;;;;;14.87;9.13;;;10.80;99.90;;;;;;4206716;28;20020;-58
2023/10/05 03:35:45;;;;;;;14.80;9.13;;;10.80;99.90;;;;;;4210787;28;20033;-60
2023/10/05 03:37:46;;;;;;;15.87;8.40;;;10.70;99.90;;;;;;4210009;28;20293;-58
2023/10/05 03:40:07;;;;;;;17.73;8.97;;;10.70;99.90;;;;;;4210144;28;20144;-60
2023/10/05 03:42:13;;;;;;;15.20;8.30;;;10.80;99.90;;;;;;4210133;28;20133;-58
2023/10/05 03:44:17;;;;;;;12.83;7.70;;;10.80;99.90;;;;;;4210614;28;20097;-59
2023/10/05 03:46:19;;;;;;;13.97;8.40;;;10.80;99.90;;;;;;4210403;28;20066;-60
2023/10/05 03:48:20;;;;;;;14.23;8.10;;;10.90;99.90;;;;;;4209929;28;20081;-57
2023/10/05 03:50:21;;;;;;;12.83;6.97;;;10.90;99.90;;;;;;4210377;28;20081;-57
2023/10/05 03:52:23;;;;;;;12.03;7.93;;;10.90;99.90;;;;;;4209280;28;20053;-58
2023/10/05 03:54:25;;;;;;;15.43;7.43;;;10.90;99.90;;;;;;4209108;28;20433;-59
2023/10/05 03:56:27;;;;;;;12.63;8.00;;;10.90;99.90;;;;;;4209993;28;20032;-59
2023/10/05 03:58:28;;;;;;;13.57;7.50;;;10.90;99.90;;;;;;4210783;28;20044;-59
2023/10/05 04:00:35;;;;;;;11.77;7.37;;;10.90;99.90;;;;;;4209814;28;20102;-60
2023/10/05 04:02:37;;;;;;;16.73;7.57;;;10.80;99.90;;;;;;4211415;28;20086;-59
2023/10/05 04:04:42;;;;;;;12.83;6.87;;;10.80;99.90;;;;;;4209869;28;20090;-58
2023/10/05 04:06:44;;;;;;;13.33;7.50;;;10.80;99.90;;;;;;4211302;28;20056;-60
2023/10/05 04:08:57;;;;;;;10.67;7.10;;;10.80;99.90;;;;;;4210206;28;20101;-61
2023/10/05 04:10:59;;;;;;;14.20;7.23;;;10.80;99.90;;;;;;4210821;28;20024;-60
2023/10/05 04:13:00;;;;;;;12.03;7.47;;;10.80;99.90;;;;;;4209379;28;20036;-61
2023/10/05 04:15:05;;;;;;;15.10;8.03;;;10.80;99.90;;;;;;4209501;28;20089;-59
2023/10/05 04:17:11;;;;;;;12.97;8.20;;;10.80;99.90;;;;;;4208697;28;20044;-59
2023/10/05 04:19:12;;;;;;;12.23;7.00;;;10.80;99.90;;;;;;4210742;28;20077;-60
2023/10/05 04:21:15;;;;;;;10.30;7.07;;;10.80;99.90;;;;;;4209462;28;20109;-59
2023/10/05 04:23:18;;;;;;;13.40;7.80;;;10.70;99.90;;;;;;4209600;28;20089;-60
2023/10/05 04:25:19;;;;;;;13.60;7.70;;;10.70;99.90;;;;;;4209864;28;20028;-59
2023/10/05 04:27:21;;;;;;;15.70;7.00;;;10.70;99.90;;;;;;4210378;28;20036;-59
2023/10/05 04:29:23;;;;;;;11.00;6.77;;;10.70;99.90;;;;;;4210100;28;20422;-60
2023/10/05 04:31:25;;;;;;;13.37;7.77;;;10.70;99.90;;;;;;4209544;28;20089;-60
2023/10/05 04:33:27;;;;;;;13.60;7.17;;;10.70;99.90;;;;;;4210617;28;20028;-60
2023/10/05 04:35:32;;;;;;;10.57;7.27;;;10.80;99.90;;;;;;4209649;28;20362;-59
2023/10/05 04:37:34;;;;;;;11.60;6.83;;;10.80;99.90;;;;;;4211008;28;20443;-59
2023/10/05 04:39:36;;;;;;;11.03;7.37;;;10.90;99.90;;;;;;4208951;28;20028;-59
2023/10/05 04:41:39;;;;;;;15.00;7.53;;;10.90;99.90;;;;;;4210075;28;20108;-59
2023/10/05 04:43:43;;;;;;;12.00;6.77;;;11.00;99.90;;;;;;4209629;28;20389;-59
2023/10/05 04:45:44;;;;;;;12.37;7.47;;;11.10;99.90;;;;;;4210456;28;20113;-60
2023/10/05 04:47:45;;;;;;;19.07;6.90;;;11.20;99.90;;;;;;4209303;28;20093;-59
2023/10/05 04:49:47;;;;;;;12.57;7.73;;;11.30;99.90;;;;;;4213845;28;20089;-59
2023/10/05 04:51:48;;;;;;;11.40;6.23;;;11.40;99.90;;;;;;4212433;28;20032;-59
2023/10/05 04:53:53;;;;;;;12.47;7.00;;;11.50;99.90;;;;;;4212580;28;20045;-60
2023/10/05 04:56:10;;;;;;;13.03;7.00;;;11.50;99.90;;;;;;4212414;28;20024;-59
2023/10/05 05:05:32;;;;;;;13.15;6.50;;;12.10;99.90;;;;;;4212619;28;20081;-60
2023/10/05 05:07:29;;;;;;;18.83;7.13;;;12.30;99.90;;;;;;4212896;28;20040;-55
2023/10/05 05:09:34;;;;;;;16.23;7.90;;;12.60;99.90;;;;;;4212407;28;20032;-56
2023/10/05 05:11:36;;;;;;;16.73;7.13;;;13.00;99.90;;;;;;4214205;28;20082;-57
2023/10/05 05:13:38;;;;;;;13.83;6.90;;;13.30;99.90;;;;;;4211951;28;20036;-60
2023/10/05 05:15:39;;;;;;;16.13;6.80;;;13.70;99.90;;;;;;4212462;28;20058;-59
2023/10/05 05:17:42;;;;;;;16.57;6.70;;;14.20;99.90;;;;;;4212268;28;20085;-59
2023/10/05 05:19:44;;;;;;;22.20;7.27;;;14.70;99.90;;;;;;4212658;28;20085;-60
2023/10/05 05:21:45;;;;;;;14.02;6.50;;;15.10;99.90;;;;;;4210422;28;20032;-58
2023/10/05 05:23:50;;;;;;;21.17;7.80;;;15.40;99.90;;;;;;4205587;28;20023;-56
2023/10/05 05:25:51;;;;;;;17.13;7.72;;;15.70;99.90;;;;;;4204310;28;20706;-60
2023/10/05 05:27:55;;;;;;;21.60;8.02;;;16.10;99.90;;;;;;4207202;28;20044;-61
2023/10/05 05:29:56;;;;;;;14.00;6.78;;;16.20;99.90;;;;;;4213163;28;20044;-58
2023/10/05 05:31:58;;;;;;;12.40;6.18;;;16.40;99.90;;;;;;4212262;28;20508;-61
2023/10/05 05:33:59;;;;;;;20.02;9.45;;;16.40;99.90;;;;;;4213531;28;20097;-61
2023/10/05 05:36:06;;;;;;;19.20;8.65;;;16.60;99.90;;;;;;4212093;28;20085;-58
2023/10/05 05:38:10;;;;;;;12.23;6.93;;;16.90;99.90;;;;;;4213011;28;20062;-59
2023/10/05 05:40:12;;;;;;;16.13;6.38;;;17.30;99.90;;;;;;4212594;28;20496;-57
2023/10/05 05:42:14;;;;;;;16.00;6.70;;;17.80;99.90;;;;;;4213477;28;20113;-57
2023/10/05 05:44:20;;;;;;;13.85;6.97;;;18.10;99.90;;;;;;4211912;28;20044;-59
2023/10/05 05:46:22;;;;;;;27.92;9.00;;;18.30;99.90;;;;;;4213565;28;20180;-59
2023/10/05 05:48:24;;;;;;;24.73;7.78;;;18.60;99.90;;;;;;4211938;28;20040;-61
2023/10/05 05:50:29;;;;;;;30.17;8.10;;;18.70;99.90;;;;;;4213110;28;20047;-57
2023/10/05 05:52:30;;;;;;;31.50;7.05;;;18.90;99.90;;;;;;4211646;28;20530;-60
2023/10/05 05:54:37;;;;;;;33.60;8.15;;;18.80;99.90;;;;;;4211805;28;20082;-58
2023/10/05 05:56:42;;;;;;;25.73;6.65;;;18.80;99.90;;;;;;4211229;28;20457;-61
2023/10/05 05:58:45;;;;;;;23.08;7.20;;;19.00;99.90;;;;;;4212747;28;20553;-61
2023/10/05 06:00:46;;;;;;;13.93;5.40;;;19.40;99.90;;;;;;4204641;28;20056;-59
2023/10/05 06:02:48;;;;;;;15.90;5.93;;;19.60;99.90;;;;;;4211908;28;20097;-61
2023/10/05 06:04:49;;;;;;;27.70;7.25;;;19.90;99.90;;;;;;4211927;28;20089;-59
2023/10/05 06:06:51;;;;;;;18.17;7.22;;;19.60;99.90;;;;;;4211723;28;20431;-61
2023/10/05 06:08:52;;;;;;;15.43;8.50;;;19.10;99.90;;;;;;4211974;28;20685;-60
2023/10/05 06:10:55;;;;;;;12.60;7.03;;;18.70;99.90;;;;;;4211700;28;20032;-60
2023/10/05 06:12:58;;;;;;;13.57;7.35;;;18.10;99.90;;;;;;4212100;28;20051;-60
2023/10/05 06:24:42;;;;;;;12.35;6.13;;;20.00;99.90;;;;;;4107004;28;20089;-59
2023/10/05 06:26:48;;;;;;;23.77;11.63;;;20.50;99.90;;;;;;4177510;28;20040;-59
2023/10/05 06:28:49;;;;;;;11.27;6.10;;;20.70;99.90;;;;;;4194787;28;20032;-60
2023/10/05 06:30:51;;;;;;;12.93;6.55;;;20.10;99.90;;;;;;4194644;28;20531;-60
2023/10/05 06:32:54;;;;;;;17.15;7.38;;;19.10;99.90;;;;;;4194541;28;20037;-62
2023/10/05 06:34:55;;;;;;;20.90;7.70;;;18.30;99.90;;;;;;4195725;28;20090;-59
2023/10/05 06:36:56;;;;;;;16.52;6.95;;;17.90;99.90;;;;;;4194326;28;20044;-60
2023/10/05 06:38:57;;;;;;;18.15;7.97;;;17.40;99.90;;;;;;4195860;28;20506;-60
2023/10/05 06:40:58;;;;;;;14.75;7.80;;;17.10;99.90;;;;;;4194507;28;20053;-61
2023/10/05 06:43:00;;;;;;;17.02;8.30;;;16.70;99.90;;;;;;4195875;28;20033;-60
2023/10/05 06:45:01;;;;;;;20.95;8.05;;;16.20;99.90;;;;;;4193329;28;20036;-58
2023/10/05 06:47:03;;;;;;;17.67;8.00;;;15.90;99.90;;;;;;4195498;28;20558;-56
2023/10/05 06:49:06;;;;;;;23.25;8.88;;;15.60;99.90;;;;;;4192608;28;20048;-59
2023/10/05 06:51:07;;;;;;;18.67;8.70;;;15.40;99.90;;;;;;4191963;28;20053;-56
2023/10/05 06:53:10;;;;;;;22.48;10.27;;;15.10;99.90;;;;;;4193136;28;20090;-59
2023/10/05 06:55:14;;;;;;;24.83;8.70;;;15.00;99.90;;;;;;4193579;28;20044;-59
2023/10/05 06:57:15;;;;;;;18.02;9.07;;;14.90;99.90;;;;;;4194149;28;20133;-59
2023/10/05 06:59:16;;;;;;;20.73;8.95;;;14.70;99.90;;;;;;4193720;28;20542;-58
2023/10/05 07:01:20;;;;;;;22.77;9.40;;;14.50;99.90;;;;;;4193591;28;20456;-57
2023/10/05 07:03:21;;;;;;;20.13;9.85;;;14.80;99.90;;;;;;4194535;28;20047;-59
2023/10/05 07:05:22;;;;;;;19.40;8.98;;;14.90;99.90;;;;;;4193742;28;20048;-58
2023/10/05 07:07:24;;;;;;;23.65;10.10;;;14.90;99.90;;;;;;4192897;28;20477;-59
2023/10/05 07:09:26;;;;;;;15.27;8.05;;;15.10;99.90;;;;;;4193643;28;20480;-59
2023/10/05 07:11:28;;;;;;;13.90;6.28;;;15.40;99.90;;;;;;4192893;28;20097;-59
2023/10/05 07:13:29;;;;;;;17.63;7.50;;;15.70;99.90;;;;;;4194852;28;20052;-60
2023/10/05 07:15:30;;;;;;;16.90;9.27;;;15.90;99.90;;;;;;4193082;28;20436;-61
2023/10/05 07:17:32;;;;;;;13.20;8.00;;;16.10;99.90;;;;;;4194500;28;20086;-57
2023/10/05 07:19:33;;;;;;;23.58;7.75;;;16.00;99.90;;;;;;4192258;28;20040;-59
2023/10/05 07:21:34;;;;;;;20.85;8.80;;;16.00;99.90;;;;;;4193002;28;20032;-57
2023/10/05 07:23:39;;;;;;;19.63;9.55;;;16.00;99.90;;;;;;4192717;28;20488;-62
2023/10/05 07:25:41;;;;;;;24.98;10.50;;;15.80;99.90;;;;;;4193666;28;20053;-60
2023/10/05 07:27:42;;;;;;;21.65;9.25;;;15.70;99.90;;;;;;4193841;28;20106;-59
2023/10/05 07:29:44;;;;;;;18.60;8.88;;;15.80;99.90;;;;;;4193947;28;20037;-59
2023/10/05 07:31:45;;;;;;;24.05;9.20;;;15.90;99.90;;;;;;4191564;28;20052;-56
2023/10/05 07:33:46;;;;;;;18.83;8.25;;;16.10;99.90;;;;;;4199282;28;20549;-56
2023/10/05 07:35:48;;;;;;;15.65;8.30;;;16.10;99.90;;;;;;4210720;28;20032;-59
2023/10/05 07:37:49;;;;;;;17.50;8.35;;;16.10;99.90;;;;;;4210327;28;20036;-55
2023/10/05 07:39:51;;;;;;;15.68;8.07;;;16.00;99.90;;;;;;4199704;28;20060;-59
2023/10/05 07:41:52;;;;;;;18.73;8.75;;;15.90;99.90;;;;;;4193394;28;20427;-58
2023/10/05 07:43:53;;;;;;;18.02;9.30;;;15.90;99.90;;;;;;4193978;28;20033;-58
2023/10/05 07:45:54;;;;;;;11.88;6.90;;;16.00;99.90;;;;;;4193528;28;20058;-59
2023/10/05 07:47:56;;;;;;;11.20;6.93;;;16.20;99.90;;;;;;4193735;28;20395;-57
2023/10/05 07:49:57;;;;;;;14.27;7.00;;;16.30;99.90;;;;;;4192765;28;20048;-60
2023/10/05 07:51:59;;;;;;;11.82;6.70;;;16.40;99.90;;;;;;4193985;28;20306;-60
2023/10/05 07:54:00;;;;;;;13.18;6.30;;;16.20;99.90;;;;;;4192531;28;20078;-58
2023/10/05 07:56:02;;;;;;;10.15;6.47;;;16.30;99.90;;;;;;4194191;28;20066;-57
2023/10/05 07:58:05;;;;;;;8.27;4.88;;;16.40;99.90;;;;;;4193162;28;20021;-58
2023/10/05 08:00:11;;;;;;;13.23;5.28;;;16.40;99.90;;;;;;4192029;28;20044;-61
2023/10/05 08:02:13;;;;;;;11.00;6.22;;;16.70;99.90;;;;;;4192887;28;20060;-58
2023/10/05 08:04:15;;;;;;;14.70;6.72;;;16.70;99.90;;;;;;4193064;28;20110;-59
2023/10/05 08:06:16;;;;;;;11.45;5.90;;;16.70;99.90;;;;;;4192854;28;20455;-59
2023/10/05 08:08:20;;;;;;;8.70;5.45;;;16.80;99.90;;;;;;4193447;28;20408;-60
2023/10/05 08:10:23;;;;;;;10.05;5.22;;;16.70;99.90;;;;;;4193514;28;20095;-59
2023/10/05 08:12:26;;;;;;;9.27;4.85;;;16.60;99.90;;;;;;4192218;28;20102;-55
2023/10/05 08:14:27;;;;;;;6.60;3.40;;;16.60;99.90;;;;;;4192232;28;20081;-58
2023/10/05 08:16:30;;;;;;;8.80;2.95;;;16.90;99.90;;;;;;4192575;28;20044;-60
2023/10/05 08:18:32;;;;;;;7.57;3.17;;;17.00;99.90;;;;;;4192728;28;20029;-56
2023/10/05 08:20:34;;;;;;;8.32;3.10;;;17.10;99.90;;;;;;4192644;28;20056;-59
2023/10/05 08:22:36;;;;;;;5.25;2.85;;;17.20;99.90;;;;;;4192129;28;20403;-58
2023/10/05 08:24:38;;;;;;;7.15;3.72;;;17.30;99.90;;;;;;4192313;28;20531;-59
2023/10/05 08:26:41;;;;;;;6.35;3.20;;;17.60;99.90;;;;;;4193270;28;20024;-58
2023/10/05 08:28:49;;;;;;;5.28;2.90;;;17.50;99.90;;;;;;4191946;28;20040;-60
2023/10/05 08:31:05;;;;;;;8.57;3.70;;;17.40;99.90;;;;;;4193932;28;20122;-59
2023/10/05 08:33:09;;;;;;;4.82;3.22;;;17.50;99.90;;;;;;4191579;28;20048;-59
2023/10/05 08:35:13;;;;;;;6.15;3.13;;;17.60;99.90;;;;;;4193290;28;20056;-58
2023/10/05 08:37:14;;;;;;;5.47;3.15;;;17.80;99.90;;;;;;4192962;28;20032;-60
2023/10/05 08:39:21;;;;;;;7.38;3.42;;;18.00;99.90;;;;;;4193682;28;20032;-58
2023/10/05 08:41:35;;;;;;;6.63;3.28;;;17.90;99.90;;;;;;4192058;28;20097;-62
2023/10/05 08:43:39;;;;;;;5.63;3.38;;;18.00;99.90;;;;;;4192991;28;20106;-61
2023/10/05 08:45:51;;;;;;;7.35;3.63;;;18.00;99.90;;;;;;4191741;28;20411;-59
2023/10/05 08:47:57;;;;;;;10.18;4.20;;;18.00;99.90;;;;;;4193734;28;20545;-59
2023/10/05 08:49:59;;;;;;;7.32;3.47;;;18.00;99.90;;;;;;4193024;28;20105;-59
2023/10/05 08:52:13;;;;;;;8.38;3.13;;;18.10;99.90;;;;;;4193615;28;20090;-59
2023/10/05 08:54:14;;;;;;;6.82;3.90;;;18.20;99.90;;;;;;4192992;28;20126;-60
2023/10/05 08:56:20;;;;;;;6.10;3.78;;;18.30;99.90;;;;;;4193500;28;20029;-60
2023/10/05 08:58:22;;;;;;;7.43;3.28;;;18.30;99.90;;;;;;4192698;28;20020;-59
2023/10/05 09:00:38;;;;;;;6.95;3.55;;;18.40;99.90;;;;;;4192396;28;20052;-57
2023/10/05 09:02:40;;;;;;;7.28;3.50;;;18.60;99.90;;;;;;4191769;28;20079;-60
2023/10/05 09:04:58;;;;;;;10.20;3.58;;;18.70;99.90;;;;;;4192701;28;20045;-59
2023/10/05 09:06:59;;;;;;;11.13;4.20;;;18.80;99.90;;;;;;4193102;28;20542;-60
2023/10/05 09:11:09;;;;;;;8.85;3.92;;;19.10;99.90;;;;;;4192762;28;20016;-59
2023/10/05 09:13:13;;;;;;;5.50;3.28;;;19.20;99.90;;;;;;4192774;28;20048;-58
2023/10/05 09:15:27;;;;;;;7.43;4.00;;;19.20;99.90;;;;;;4193769;28;20424;-58
2023/10/05 09:17:28;;;;;;;7.93;4.40;;;19.30;99.90;;;;;;4192707;28;20049;-55
2023/10/05 09:19:29;;;;;;;6.03;3.58;;;19.40;99.90;;;;;;4193015;28;20138;-59
2023/10/05 09:21:50;;;;;;;7.85;4.22;;;19.40;99.90;;;;;;4192462;28;20041;-57
2023/10/05 09:23:51;;;;;;;7.07;3.92;;;19.30;99.90;;;;;;4192974;28;20028;-57
2023/10/05 09:25:53;;;;;;;6.50;3.95;;;19.40;99.90;;;;;;4192074;28;20469;-61
2023/10/05 09:27:56;;;;;;;8.02;4.18;;;19.30;99.90;;;;;;4192756;28;20098;-58
2023/10/05 09:30:09;;;;;;;8.52;3.85;;;19.40;99.90;;;;;;4192237;28;20048;-60
2023/10/05 09:32:36;;;;;;;9.50;4.57;;;19.40;99.90;;;;;;4193183;28;20083;-57
2023/10/05 09:34:43;;;;;;;7.78;3.50;;;19.60;99.90;;;;;;4192552;28;20067;-58
2023/10/05 09:36:45;;;;;;;4.95;3.10;;;19.80;99.90;;;;;;4196293;28;20048;-58
2023/10/05 09:38:46;;;;;;;6.38;2.90;;;20.00;99.90;;;;;;4195305;28;20391;-59
2023/10/05 09:40:48;;;;;;;7.78;3.65;;;20.20;99.90;;;;;;4196343;28;20092;-57
2023/10/05 09:42:53;;;;;;;7.28;3.70;;;20.20;99.90;;;;;;4195695;28;20582;-57
2023/10/05 09:44:59;;;;;;;9.60;2.90;;;20.20;99.90;;;;;;4196406;28;20460;-58
2023/10/05 09:47:01;;;;;;;3.63;2.03;;;20.30;99.90;;;;;;4195130;28;20101;-59
2023/10/05 09:49:05;;;;;;;6.75;3.15;;;20.50;99.90;;;;;;4196084;28;20070;-59
2023/10/05 09:51:08;;;;;;;4.97;2.42;;;20.50;99.90;;;;;;4195042;28;20076;-59
2023/10/05 09:53:11;;;;;;;4.35;2.05;;;20.50;99.90;;;;;;4196257;28;20495;-59
2023/10/05 09:55:17;;;;;;;9.18;2.15;;;20.50;99.90;;;;;;4194740;28;20128;-61
2023/10/05 09:57:20;;;;;;;3.58;1.90;;;20.60;99.90;;;;;;4196428;28;20044;-59
2023/10/05 09:59:25;;;;;;;4.13;2.20;;;20.70;99.90;;;;;;4194856;28;20097;-58
2023/10/05 10:01:30;;;;;;;3.47;2.38;;;20.70;99.90;;;;;;4195459;28;20049;-58
2023/10/05 10:03:31;;;;;;;4.78;2.30;;;20.70;99.50;;;;;;4194905;28;20024;-55
2023/10/05 10:05:51;;;;;;;3.92;2.20;;;20.70;99.10;;;;;;4195642;28;20082;-60
2023/10/05 10:07:56;;;;;;;8.13;2.67;;;20.70;98.80;;;;;;4195397;28;20045;-59
2023/10/05 10:09:57;;;;;;;5.70;2.20;;;20.70;98.80;;;;;;4195441;28;20048;-59
2023/10/05 10:11:59;;;;;;;5.07;2.53;;;20.70;98.80;;;;;;4195174;28;20048;-56
2023/10/05 10:14:05;;;;;;;4.72;2.00;;;20.70;98.70;;;;;;4195838;28;20106;-59
2023/10/05 10:16:21;;;;;;;3.20;2.10;;;20.80;98.70;;;;;;4195263;28;20070;-58
2023/10/05 10:18:34;;;;;;;4.28;2.35;;;20.70;98.10;;;;;;4194813;28;20462;-55
2023/10/05 10:20:36;;;;;;;3.40;2.30;;;20.80;98.70;;;;;;4194664;28;20437;-59
2023/10/05 10:22:50;;;;;;;3.55;2.17;;;20.80;98.60;;;;;;4194695;28;20048;-60
2023/10/05 10:24:56;;;;;;;3.60;2.20;;;20.90;98.20;;;;;;4194671;28;20426;-54
2023/10/05 10:27:07;;;;;;;4.63;2.80;;;20.90;98.30;;;;;;4194732;28;20133;-60
2023/10/05 10:29:11;;;;;;;5.90;2.78;;;20.80;98.20;;;;;;4193438;28;20032;-58
2023/10/05 10:31:14;;;;;;;3.72;2.20;;;20.80;98.30;;;;;;4194543;28;20113;-58
2023/10/05 10:33:28;;;;;;;6.78;2.28;;;20.90;98.30;;;;;;4195349;28;20013;-57
2023/10/05 10:35:32;;;;;;;5.85;2.70;;;21.00;98.10;;;;;;4194312;28;20025;-55
2023/10/05 10:37:36;;;;;;;4.20;2.25;;;21.00;97.70;;;;;;4195014;28;20040;-57
2023/10/05 10:39:37;;;;;;;7.35;2.78;;;21.10;98.00;;;;;;4193454;28;20087;-59
2023/10/05 10:42:01;;;;;;;4.95;2.17;;;21.10;97.80;;;;;;4195202;28;20082;-57
2023/10/05 10:44:02;;;;;;;6.13;2.35;;;21.10;97.00;;;;;;4194193;28;20044;-58
2023/10/05 10:46:13;;;;;;;4.32;2.92;;;20.90;97.70;;;;;;4194462;28;20040;-58
2023/10/05 10:50:30;;;;;;;8.30;3.25;;;21.10;98.10;;;;;;4195138;28;20097;-59
2023/10/05 10:52:36;;;;;;;6.88;3.08;;;21.20;98.10;;;;;;4193443;28;20074;-57
2023/10/05 10:54:45;;;;;;;7.18;2.60;;;21.20;97.90;;;;;;4195151;28;20112;-57
2023/10/05 10:56:47;;;;;;;4.30;2.78;;;21.20;97.70;;;;;;4193920;28;20102;-56
2023/10/05 10:58:56;;;;;;;4.57;3.00;;;21.20;97.50;;;;;;4194938;28;20423;-58
2023/10/05 11:01:41;;;;;;;4.75;2.35;;;21.00;97.50;;;;;;4192378;28;20078;-57
2023/10/05 11:03:27;;;;;;;7.00;3.25;;;20.80;97.70;;;;;;4194597;28;20033;-57
2023/10/05 11:05:54;;;;;;;5.50;2.67;;;20.60;98.10;;;;;;4193878;28;20045;-59
2023/10/05 11:07:59;;;;;;;5.82;3.03;;;20.60;97.80;;;;;;4191875;28;20102;-58
2023/10/05 11:10:06;;;;;;;5.53;2.95;;;20.50;98.10;;;;;;4194941;28;20055;-59
2023/10/05 11:12:11;;;;;;;5.35;2.60;;;20.40;98.30;;;;;;4194681;28;20101;-58
2023/10/05 11:14:21;;;;;;;6.28;2.70;;;20.50;98.70;;;;;;4178262;28;20507;-58